Time;durP1;ratioP1;P1;durP2;ratioP2;P2;SDS_P1;SDS_P2;PMS_P1;PMS_P2;Temp;Humidity;BMP_temperature;BMP_pressure;BME280_temperature;BME280_humidity;BME280_pressure;Samples;Min_cycle;Max_cycle;Signal;HPM_P1;HPM_P2
2021/04/23 08:40:35;;;;;;;3.83;2.00;;;;;;;;;;5141587;27;20388;-42
2021/04/23 08:43:01;;;;;;;4.07;1.90;;;;;;;;;;5108372;28;20068;-42
2021/04/23 08:45:27;;;;;;;4.70;2.28;;;;;;;;;;5106876;28;20270;-50
2021/04/23 08:47:53;;;;;;;4.05;2.15;;;;;;;;;;5106586;28;20483;-42
2021/04/23 08:50:21;;;;;;;4.07;2.20;;;;;;;;;;5090118;28;20111;-49
2021/04/23 08:52:47;;;;;;;3.33;2.10;;;;;;;;;;5107297;28;20028;-45
2021/04/23 08:55:14;;;;;;;2.77;1.70;;;;;;;;;;5107761;28;20024;-42
2021/04/23 08:57:40;;;;;;;3.10;1.90;;;;;;;;;;5105969;28;20250;-43
2021/04/23 09:00:08;;;;;;;3.23;2.07;;;;;;;;;;5096221;28;20032;-39
2021/04/23 09:02:35;;;;;;;3.97;2.08;;;;;;;;;;5108781;28;20035;-43
2021/04/23 09:05:01;;;;;;;4.18;1.90;;;;;;;;;;5108256;28;20444;-46
2021/04/23 09:07:28;;;;;;;3.92;1.73;;;;;;;;;;5108972;28;20043;-44
2021/04/23 09:10:04;;;;;;;3.38;1.88;;;;;;;;;;5107681;28;20094;-43
2021/04/23 09:12:30;;;;;;;2.53;1.60;;;;;;;;;;5109265;28;20024;-46
2021/04/23 09:14:56;;;;;;;2.93;1.97;;;;;;;;;;5108261;28;20075;-45
2021/04/23 09:17:26;;;;;;;9.40;2.13;;;;;;;;;;5108190;28;20096;-44
2021/04/23 09:19:56;;;;;;;3.22;1.70;;;;;;;;;;5108708;28;20467;-46
2021/04/23 09:22:24;;;;;;;3.17;1.98;;;;;;;;;;5107941;28;20531;-47
2021/04/23 09:24:58;;;;;;;3.45;2.05;;;;;;;;;;5108489;28;20152;-52
2021/04/23 09:27:44;;;;;;;3.55;2.17;;;;;;;;;;5108521;28;20052;-55
2021/04/23 09:30:12;;;;;;;3.85;1.98;;;;;;;;;;5106388;28;20504;-45
2021/04/23 09:32:39;;;;;;;2.65;1.67;;;;;;;;;;5107356;28;20082;-44
2021/04/23 09:35:18;;;;;;;3.05;1.90;;;;;;;;;;5108467;28;20031;-50
2021/04/23 09:37:56;;;;;;;2.80;1.70;;;;;;;;;;5108272;28;20161;-50
2021/04/23 09:40:24;;;;;;;4.63;2.47;;;;;;;;;;5107461;28;20047;-55
2021/04/23 09:42:57;;;;;;;3.38;2.00;;;;;;;;;;5107719;28;20024;-54
2021/04/23 09:45:27;;;;;;;3.08;1.90;;;;;;;;;;5108131;28;20115;-51
2021/04/23 09:47:53;;;;;;;3.42;1.80;;;;;;;;;;5107921;28;20453;-58
2021/04/23 09:50:20;;;;;;;3.50;2.20;;;;;;;;;;5085181;28;20024;-54
2021/04/23 09:52:48;;;;;;;2.90;1.95;;;;;;;;;;5094362;28;20017;-55
2021/04/23 09:55:15;;;;;;;3.03;1.67;;;;;;;;;;5072801;28;20024;-59
2021/04/23 09:57:47;;;;;;;6.00;3.72;;;;;;;;;;5091178;28;20386;-58
2021/04/23 10:00:14;;;;;;;9.20;4.25;;;;;;;;;;5071928;28;20127;-60
2021/04/23 10:02:40;;;;;;;8.50;4.30;;;;;;;;;;5074358;28;20115;-56
2021/04/23 10:05:07;;;;;;;7.55;4.57;;;;;;;;;;5092189;28;20059;-53
2021/04/23 10:07:35;;;;;;;8.95;5.28;;;;;;;;;;5089025;28;20078;-55
2021/04/23 10:10:11;;;;;;;8.85;5.22;;;;;;;;;;5094708;28;20049;-53
2021/04/23 10:12:44;;;;;;;10.63;5.70;;;;;;;;;;5092639;28;20127;-51
2021/04/23 10:15:13;;;;;;;8.90;5.47;;;;;;;;;;5092081;28;20487;-51
2021/04/23 10:17:40;;;;;;;8.60;5.10;;;;;;;;;;5082896;28;20181;-52
2021/04/23 10:20:06;;;;;;;;;;;;;;;;;;5091857;28;20032;-51
2021/04/23 10:22:32;;;;;;;10.67;5.73;;;;;;;;;;5092079;28;19927;-52
2021/04/23 10:24:59;;;;;;;16.37;6.03;;;;;;;;;;5092008;28;20013;-51
2021/04/23 10:27:25;;;;;;;9.70;6.22;;;;;;;;;;5092433;28;20054;-51
2021/04/23 10:29:53;;;;;;;10.93;6.63;;;;;;;;;;5092349;28;20024;-49
2021/04/23 10:32:20;;;;;;;11.38;6.80;;;;;;;;;;5073846;28;20456;-51
2021/04/23 10:34:47;;;;;;;9.32;5.80;;;;;;;;;;5070596;28;20031;-53
2021/04/23 10:37:13;;;;;;;10.65;6.63;;;;;;;;;;5073185;28;20093;-53
2021/04/23 10:39:41;;;;;;;8.88;5.72;;;;;;;;;;5072707;28;20079;-53
2021/04/23 10:42:28;;;;;;;12.23;6.68;;;;;;;;;;5091137;28;20027;-54
2021/04/23 10:45:02;;;;;;;9.03;6.17;;;;;;;;;;5091905;28;20020;-50
2021/04/23 10:47:29;;;;;;;20.42;6.72;;;;;;;;;;5073147;28;20277;-51
2021/04/23 10:50:05;;;;;;;10.82;5.88;;;;;;;;;;5087873;28;20027;-53
2021/04/23 10:52:31;;;;;;;10.68;6.78;;;;;;;;;;5069035;28;20491;-51
2021/04/23 10:55:17;;;;;;;10.60;6.43;;;;;;;;;;5090801;28;20046;-51
2021/04/23 10:57:53;;;;;;;10.02;6.13;;;;;;;;;;5089791;28;20043;-54
2021/04/23 11:00:39;;;;;;;7.75;5.43;;;;;;;;;;5090643;28;20387;-51
2021/04/23 11:03:21;;;;;;;9.32;5.72;;;;;;;;;;5082160;28;20016;-51
2021/04/23 11:06:00;;;;;;;10.05;5.50;;;;;;;;;;5091633;28;20020;-51
2021/04/23 11:08:28;;;;;;;8.70;5.13;;;;;;;;;;5059448;28;20391;-52
2021/04/23 11:10:54;;;;;;;;;;;;;;;;;;5073673;28;20442;-54
2021/04/23 11:13:24;;;;;;;9.73;5.57;;;;;;;;;;5091250;28;20097;-55
2021/04/23 11:16:08;;;;;;;11.00;5.25;;;;;;;;;;5073167;28;20034;-52
2021/04/23 11:18:34;;;;;;;13.88;5.10;;;;;;;;;;5090621;28;20459;-53
2021/04/23 11:21:19;;;;;;;9.93;5.13;;;;;;;;;;5072227;28;20031;-53
2021/04/23 11:24:04;;;;;;;9.30;5.20;;;;;;;;;;5090050;28;20024;-49
2021/04/23 11:26:48;;;;;;;11.35;5.50;;;;;;;;;;5087829;28;20032;-50
2021/04/23 11:29:14;;;;;;;10.95;5.18;;;;;;;;;;5090721;28;20039;-53
2021/04/23 11:31:59;;;;;;;10.23;4.88;;;;;;;;;;5090851;28;20024;-52
2021/04/23 11:34:37;;;;;;;10.07;5.00;;;;;;;;;;5071671;28;20526;-53
2021/04/23 11:37:14;;;;;;;6.30;4.53;;;;;;;;;;5091357;28;20150;-58
2021/04/23 11:39:45;;;;;;;9.85;4.88;;;;;;;;;;5090466;28;20069;-49
2021/04/23 11:42:45;;;;;;;6.70;4.28;;;;;;;;;;5147716;27;20399;-42
2021/04/23 11:45:19;;;;;;;8.20;4.05;;;;;;;;;;5125768;28;20122;-41
2021/04/23 11:47:48;;;;;;;7.07;3.80;;;;;;;;;;5126597;27;20102;-50
2021/04/23 11:50:16;;;;;;;7.68;3.65;;;;;;;;;;5126553;27;20111;-48
2021/04/23 11:52:44;;;;;;;7.28;3.42;;;;;;;;;;5107745;27;20118;-47
2021/04/23 11:55:27;;;;;;;7.20;3.85;;;;;;;;;;5120734;27;20023;-46
2021/04/23 11:58:01;;;;;;;5.70;3.53;;;;;;;;;;5126709;28;20031;-46
2021/04/23 12:00:28;;;;;;;5.72;3.65;;;;;;;;;;5126799;28;20023;-44
2021/04/23 12:02:56;;;;;;;5.78;3.72;;;;;;;;;;5126761;28;20023;-47
2021/04/23 12:05:28;;;;;;;6.93;3.70;;;;;;;;;;5126867;27;20051;-48
2021/04/23 12:07:56;;;;;;;5.57;3.42;;;;;;;;;;5127036;27;20111;-50
2021/04/23 12:10:23;;;;;;;6.03;3.15;;;;;;;;;;5127087;28;20153;-47
2021/04/23 12:12:49;;;;;;;4.25;3.08;;;;;;;;;;5108430;28;20077;-49
2021/04/23 12:15:20;;;;;;;4.00;3.43;;;;;;;;;;5127389;28;20051;-46
2021/04/23 12:17:46;;;;;;;5.03;3.00;;;;;;;;;;5119829;27;20035;-46
2021/04/23 12:20:13;;;;;;;5.30;3.17;;;;;;;;;;5127294;27;20065;-44
2021/04/23 12:22:40;;;;;;;7.07;3.25;;;;;;;;;;5127092;28;20023;-43
2021/04/23 12:25:19;;;;;;;5.38;3.05;;;;;;;;;;5108893;28;20089;-46
2021/04/23 12:27:45;;;;;;;4.70;2.88;;;;;;;;;;5108789;28;20028;-45
2021/04/23 12:30:11;;;;;;;4.35;3.00;;;;;;;;;;5123756;28;20034;-46
2021/04/23 12:32:49;;;;;;;5.90;3.40;;;;;;;;;;5108264;28;20043;-43
2021/04/23 12:35:29;;;;;;;4.47;2.90;;;;;;;;;;5108567;28;20069;-46
2021/04/23 12:37:55;;;;;;;3.90;2.60;;;;;;;;;;5126923;28;20041;-46
2021/04/23 12:40:35;;;;;;;4.38;2.88;;;;;;;;;;5107510;28;20413;-44
2021/04/23 12:43:12;;;;;;;4.10;2.78;;;;;;;;;;5127138;27;20023;-46
2021/04/23 12:45:41;;;;;;;;;;;;;;;;;;5113480;28;20031;-48
2021/04/23 12:48:09;;;;;;;4.45;2.80;;;;;;;;;;5126622;28;19903;-44
2021/04/23 12:50:35;;;;;;;11.35;2.80;;;;;;;;;;5126165;28;20050;-48
2021/04/23 12:53:01;;;;;;;3.55;2.95;;;;;;;;;;5117094;28;20282;-37
2021/04/23 12:55:28;;;;;;;6.37;3.27;;;;;;;;;;5104483;28;20058;-37
2021/04/23 12:57:56;;;;;;;3.60;2.92;;;;;;;;;;5111640;28;20028;-38
2021/04/23 13:00:24;;;;;;;5.82;2.72;;;;;;;;;;5111060;28;20020;-38
2021/04/23 13:02:55;;;;;;;6.43;2.67;;;;;;;;;;5111495;28;20024;-38
2021/04/23 13:05:21;;;;;;;4.20;2.97;;;;;;;;;;5117426;27;20127;-38
2021/04/23 13:07:48;;;;;;;6.07;3.00;;;;;;;;;;5117443;27;20028;-37
2021/04/23 13:10:15;;;;;;;5.27;2.87;;;;;;;;;;5111010;28;20070;-40
2021/04/23 13:12:42;;;;;;;6.15;2.97;;;;;;;;;;5108206;28;20023;-40
2021/04/23 13:15:09;;;;;;;4.63;2.80;;;;;;;;;;5108109;28;20108;-37
2021/04/23 13:17:42;;;;;;;3.97;2.67;;;;;;;;;;5107015;28;20039;-36
2021/04/23 13:20:19;;;;;;;3.88;2.75;;;;;;;;;;5111061;28;20205;-38
2021/04/23 13:22:53;;;;;;;3.38;2.58;;;;;;;;;;5110923;28;20047;-38
2021/04/23 13:25:39;;;;;;;4.70;2.63;;;;;;;;;;5092288;28;20027;-38
2021/04/23 13:28:14;;;;;;;5.07;2.90;;;;;;;;;;5099344;28;20039;-39
2021/04/23 13:30:43;;;;;;;4.82;2.63;;;;;;;;;;5107455;28;20471;-38
2021/04/23 13:33:10;;;;;;;4.78;3.08;;;;;;;;;;5108007;28;20467;-39
2021/04/23 13:35:41;;;;;;;5.20;2.58;;;;;;;;;;5105210;28;20043;-38
2021/04/23 13:38:20;;;;;;;6.18;2.97;;;;;;;;;;5090522;28;20084;-38
2021/04/23 13:40:47;;;;;;;5.00;3.33;;;;;;;;;;5108677;28;20128;-37
2021/04/23 13:43:13;;;;;;;3.17;2.65;;;;;;;;;;5104525;28;20501;-36
2021/04/23 13:45:40;;;;;;;5.07;3.08;;;;;;;;;;5097077;28;20031;-38
2021/04/23 13:48:16;;;;;;;4.78;3.20;;;;;;;;;;5101429;28;20110;-38
2021/04/23 13:50:42;;;;;;;4.47;2.97;;;;;;;;;;5093069;28;20024;-38
2021/04/23 13:53:08;;;;;;;4.57;3.00;;;;;;;;;;5110816;28;20333;-38
2021/04/23 13:55:34;;;;;;;3.25;2.85;;;;;;;;;;5110047;28;20031;-38
2021/04/23 13:58:05;;;;;;;4.03;3.00;;;;;;;;;;5098635;28;20062;-38
2021/04/23 14:00:47;;;;;;;5.57;3.17;;;;;;;;;;5109829;28;20314;-38
2021/04/23 14:03:14;;;;;;;6.25;3.42;;;;;;;;;;5109732;28;20031;-37
2021/04/23 14:05:40;;;;;;;5.28;3.22;;;;;;;;;;5109419;28;20030;-38
2021/04/23 14:08:06;;;;;;;5.00;3.88;;;;;;;;;;5110063;28;20030;-38
2021/04/23 14:10:32;;;;;;;4.88;3.35;;;;;;;;;;5109995;28;20098;-38
2021/04/23 14:12:58;;;;;;;3.88;3.20;;;;;;;;;;5109892;28;20020;-37
2021/04/23 14:15:24;;;;;;;3.90;2.92;;;;;;;;;;5108682;28;20020;-36
2021/04/23 14:17:50;;;;;;;5.35;3.42;;;;;;;;;;5108053;28;20039;-36
2021/04/23 14:20:16;;;;;;;6.47;3.58;;;;;;;;;;5106800;28;20023;-37
2021/04/23 14:22:42;;;;;;;3.60;2.80;;;;;;;;;;5109636;28;20046;-36
2021/04/23 14:25:09;;;;;;;3.80;3.15;;;;;;;;;;5108851;28;20144;-37
2021/04/23 14:27:35;;;;;;;3.75;3.20;;;;;;;;;;5109092;28;21683;-36
2021/04/23 14:30:01;;;;;;;6.10;3.30;;;;;;;;;;5086430;28;20229;-38
2021/04/23 14:32:27;;;;;;;3.72;3.03;;;;;;;;;;5106941;28;20035;-34
2021/04/23 14:34:53;;;;;;;7.47;3.13;;;;;;;;;;5109313;28;20083;-38
2021/04/23 14:37:20;;;;;;;6.37;3.57;;;;;;;;;;5109361;28;20032;-36
2021/04/23 14:39:46;;;;;;;5.20;3.03;;;;;;;;;;5109051;28;20333;-37
2021/04/23 14:42:12;;;;;;;6.03;3.60;;;;;;;;;;5108817;28;20843;-39
2021/04/23 14:44:38;;;;;;;6.95;3.47;;;;;;;;;;5105641;28;20035;-38
2021/04/23 14:47:04;;;;;;;7.10;3.53;;;;;;;;;;5111098;27;20023;-38
2021/04/23 14:49:30;;;;;;;4.07;3.58;;;;;;;;;;5102026;28;20625;-37
2021/04/23 14:51:57;;;;;;;7.63;3.80;;;;;;;;;;5109633;28;20110;-37
2021/04/23 14:54:23;;;;;;;5.30;3.55;;;;;;;;;;5108105;28;20262;-40
2021/04/23 14:56:51;;;;;;;6.72;3.33;;;;;;;;;;5107932;28;20082;-36
2021/04/23 14:59:18;;;;;;;7.90;3.58;;;;;;;;;;5107265;28;20091;-51
2021/04/23 15:01:44;;;;;;;6.13;3.58;;;;;;;;;;5108080;28;20104;-57
2021/04/23 15:04:10;;;;;;;8.85;3.80;;;;;;;;;;5087904;28;20026;-38
2021/04/23 15:06:36;;;;;;;4.25;3.03;;;;;;;;;;5098894;28;20046;-38
2021/04/23 15:09:03;;;;;;;4.60;3.10;;;;;;;;;;5109075;28;20016;-41
2021/04/23 15:11:29;;;;;;;5.70;3.85;;;;;;;;;;5102604;28;20504;-37
2021/04/23 15:13:55;;;;;;;7.32;3.63;;;;;;;;;;5104738;28;20133;-37
2021/04/23 15:16:21;;;;;;;7.30;3.50;;;;;;;;;;5107919;28;20454;-36
2021/04/23 15:18:48;;;;;;;7.03;3.10;;;;;;;;;;5110912;28;20849;-37
2021/04/23 15:21:17;;;;;;;4.60;3.40;;;;;;;;;;5098619;28;20147;-37
2021/04/23 15:23:43;;;;;;;4.47;3.28;;;;;;;;;;5097171;28;20038;-36
2021/04/23 15:26:09;;;;;;;5.73;3.17;;;;;;;;;;5088621;28;20130;-36
2021/04/23 15:28:35;;;;;;;6.10;3.35;;;;;;;;;;5106173;28;20053;-36
2021/04/23 15:31:02;;;;;;;3.90;3.20;;;;;;;;;;5104939;28;20101;-34
2021/04/23 15:33:28;;;;;;;5.93;3.42;;;;;;;;;;5107330;28;20524;-39
2021/04/23 15:35:55;;;;;;;6.90;3.28;;;;;;;;;;5107958;28;20028;-38
2021/04/23 15:38:21;;;;;;;4.63;2.93;;;;;;;;;;5108016;28;20067;-38
2021/04/23 15:40:52;;;;;;;7.32;3.72;;;;;;;;;;5107995;28;20275;-38
2021/04/23 15:43:18;;;;;;;5.22;2.95;;;;;;;;;;5108501;28;20047;-38
2021/04/23 15:45:49;;;;;;;4.30;3.10;;;;;;;;;;5108094;28;20465;-37
2021/04/23 15:48:19;;;;;;;6.40;2.95;;;;;;;;;;5106412;28;20089;-39
2021/04/23 15:50:47;;;;;;;5.07;3.47;;;;;;;;;;5086209;28;20115;-38
2021/04/23 15:53:13;;;;;;;5.35;2.83;;;;;;;;;;5105422;28;20034;-38
2021/04/23 15:55:39;;;;;;;4.45;3.15;;;;;;;;;;5107453;28;20087;-36
2021/04/23 15:58:05;;;;;;;5.20;3.70;;;;;;;;;;5099302;28;20028;-38
2021/04/23 16:00:33;;;;;;;6.75;3.35;;;;;;;;;;5105448;28;20161;-37
2021/04/23 16:03:00;;;;;;;4.53;2.72;;;;;;;;;;5089754;28;20375;-38
2021/04/23 16:05:27;;;;;;;7.10;3.53;;;;;;;;;;5108264;28;20496;-38
2021/04/23 16:07:53;;;;;;;3.65;2.95;;;;;;;;;;5108351;28;20128;-38
2021/04/23 16:10:20;;;;;;;5.78;3.58;;;;;;;;;;5105227;28;20421;-38
2021/04/23 16:12:47;;;;;;;6.85;3.30;;;;;;;;;;5102709;28;20387;-37
2021/04/23 16:15:14;;;;;;;3.53;2.92;;;;;;;;;;5105291;28;20092;-36
2021/04/23 16:17:40;;;;;;;6.03;3.10;;;;;;;;;;5089190;28;20028;-37
